Time;durP1;ratioP1;P1;durP2;ratioP2;P2;SDS_P1;SDS_P2;PMS_P1;PMS_P2;Temp;Humidity;BMP_temperature;BMP_pressure;BME280_temperature;BME280_humidity;BME280_pressure;Samples;Min_cycle;Max_cycle;Signal;HPM_P1;HPM_P2
2023/03/15 00:02:23;;;;;;;12.63;1.80;;;;;;;;;;5064314;28;20013;-72
2023/03/15 00:04:50;;;;;;;12.50;2.80;;;;;;;;;;5062554;28;20438;-71
2023/03/15 00:07:15;;;;;;;15.30;3.58;;;;;;;;;;5064026;28;20017;-72
2023/03/15 00:09:40;;;;;;;9.67;2.73;;;;;;;;;;5064890;28;20031;-73
2023/03/15 00:12:05;;;;;;;19.52;3.92;;;;;;;;;;5059788;28;20794;-72
2023/03/15 00:14:31;;;;;;;15.95;4.20;;;;;;;;;;5061998;28;20041;-69
2023/03/15 00:16:56;;;;;;;13.88;3.95;;;;;;;;;;5062053;28;20020;-72
2023/03/15 00:19:21;;;;;;;18.47;4.17;;;;;;;;;;5065620;28;20028;-69
2023/03/15 00:21:46;;;;;;;27.58;4.55;;;;;;;;;;5062692;28;20299;-71
2023/03/15 00:24:11;;;;;;;11.67;3.43;;;;;;;;;;5060755;28;20021;-70
2023/03/15 00:26:37;;;;;;;20.83;4.50;;;;;;;;;;5066935;28;20247;-70
2023/03/15 00:29:02;;;;;;;25.35;5.30;;;;;;;;;;5061376;28;20024;-71
2023/03/15 00:31:27;;;;;;;20.40;4.97;;;;;;;;;;5064706;28;20036;-70
2023/03/15 00:33:53;;;;;;;11.40;3.47;;;;;;;;;;5064821;28;20025;-72
2023/03/15 00:36:22;;;;;;;16.98;5.22;;;;;;;;;;5061613;28;20021;-72
2023/03/15 00:38:47;;;;;;;18.58;4.15;;;;;;;;;;5059377;28;20104;-72
2023/03/15 00:41:14;;;;;;;16.88;4.57;;;;;;;;;;5066814;28;20104;-70
2023/03/15 00:43:39;;;;;;;14.73;3.65;;;;;;;;;;5057821;28;20485;-71
2023/03/15 00:46:05;;;;;;;14.95;3.13;;;;;;;;;;5067890;28;20180;-70
2023/03/15 00:48:30;;;;;;;17.25;4.82;;;;;;;;;;5062919;28;20056;-69
2023/03/15 00:51:02;;;;;;;19.45;4.45;;;;;;;;;;5060776;28;20050;-71
2023/03/15 00:53:27;;;;;;;23.13;5.25;;;;;;;;;;5063714;28;20559;-70
2023/03/15 00:55:53;;;;;;;23.58;4.63;;;;;;;;;;5066362;28;20040;-69
2023/03/15 00:58:18;;;;;;;28.45;6.30;;;;;;;;;;5064655;28;20091;-70
2023/03/15 01:00:43;;;;;;;19.77;5.43;;;;;;;;;;5063595;28;20521;-70
2023/03/15 01:03:08;;;;;;;8.55;3.25;;;;;;;;;;5067874;28;20395;-73
2023/03/15 01:05:34;;;;;;;14.77;4.63;;;;;;;;;;5066826;28;20024;-71
2023/03/15 01:08:01;;;;;;;10.35;2.33;;;;;;;;;;5065301;28;20025;-72
2023/03/15 01:10:27;;;;;;;18.13;2.92;;;;;;;;;;5067139;28;20013;-72
2023/03/15 01:12:52;;;;;;;24.15;5.78;;;;;;;;;;5065672;28;20043;-69
2023/03/15 01:15:17;;;;;;;19.45;4.63;;;;;;;;;;5062409;28;20016;-69
2023/03/15 01:17:43;;;;;;;21.42;4.40;;;;;;;;;;5066342;28;20021;-70
2023/03/15 01:20:10;;;;;;;22.55;4.70;;;;;;;;;;5064333;28;20020;-70
2023/03/15 01:22:35;;;;;;;16.25;4.28;;;;;;;;;;5064015;28;20446;-69
2023/03/15 01:25:00;;;;;;;3.40;1.87;;;;;;;;;;5061647;28;20031;-69
2023/03/15 01:27:26;;;;;;;24.40;5.80;;;;;;;;;;5066730;28;20267;-70
2023/03/15 01:29:51;;;;;;;20.10;6.18;;;;;;;;;;5067587;28;20046;-70
2023/03/15 01:32:16;;;;;;;21.00;8.00;;;;;;;;;;5067637;28;20016;-69
2023/03/15 01:34:42;;;;;;;29.38;6.97;;;;;;;;;;5069655;28;20032;-71
2023/03/15 01:37:07;;;;;;;28.10;7.45;;;;;;;;;;5066466;28;20024;-69
2023/03/15 01:39:33;;;;;;;29.00;7.20;;;;;;;;;;5067764;28;20035;-71
2023/03/15 01:41:58;;;;;;;24.13;8.60;;;;;;;;;;5061335;28;20389;-70
2023/03/15 01:44:23;;;;;;;27.30;9.03;;;;;;;;;;5069495;28;20074;-70
2023/03/15 01:46:49;;;;;;;17.75;6.45;;;;;;;;;;5063147;28;20366;-69
2023/03/15 01:49:21;;;;;;;31.55;8.73;;;;;;;;;;5071668;28;20056;-70
2023/03/15 01:52:00;;;;;;;17.58;5.25;;;;;;;;;;5061010;28;20048;-70
2023/03/15 01:54:28;;;;;;;15.95;6.80;;;;;;;;;;5063177;28;20608;-71
2023/03/15 01:56:56;;;;;;;23.38;8.32;;;;;;;;;;5060503;28;20032;-70
2023/03/15 01:59:34;;;;;;;13.85;5.55;;;;;;;;;;5065132;28;20072;-71
2023/03/15 02:02:00;;;;;;;21.17;6.95;;;;;;;;;;5059608;28;20037;-71
2023/03/15 02:04:30;;;;;;;16.60;5.38;;;;;;;;;;5063751;28;20512;-71
2023/03/15 02:06:57;;;;;;;11.55;4.90;;;;;;;;;;5059687;28;20021;-71
2023/03/15 02:09:25;;;;;;;12.88;3.25;;;;;;;;;;5064387;28;21965;-70
2023/03/15 02:11:50;;;;;;;8.25;3.65;;;;;;;;;;5057228;28;20044;-70
2023/03/15 02:14:16;;;;;;;17.58;3.72;;;;;;;;;;5061968;28;20089;-70
2023/03/15 02:16:43;;;;;;;9.80;3.33;;;;;;;;;;5058321;28;20028;-70
2023/03/15 02:19:10;;;;;;;8.30;3.47;;;;;;;;;;5058564;28;20017;-70
2023/03/15 02:21:48;;;;;;;7.60;3.58;;;;;;;;;;5067091;28;20025;-70
2023/03/15 02:24:19;;;;;;;6.75;3.80;;;;;;;;;;5057850;28;20020;-70
2023/03/15 02:26:47;;;;;;;9.50;4.10;;;;;;;;;;5065270;28;20027;-70
2023/03/15 02:29:12;;;;;;;9.07;4.43;;;;;;;;;;5061260;28;20054;-70
2023/03/15 02:31:37;;;;;;;9.55;4.55;;;;;;;;;;5060785;28;20021;-70
2023/03/15 02:34:06;;;;;;;9.73;3.35;;;;;;;;;;5065197;28;20533;-69
2023/03/15 02:36:32;;;;;;;10.18;3.38;;;;;;;;;;5062850;28;20024;-69
2023/03/15 02:38:57;;;;;;;4.50;2.58;;;;;;;;;;5056481;28;20013;-69
2023/03/15 02:41:49;;;;;;;6.03;2.33;;;;;;;;;;5060348;28;20027;-69
2023/03/15 02:44:17;;;;;;;14.23;4.35;;;;;;;;;;5062493;28;20037;-69
2023/03/15 02:46:44;;;;;;;8.73;3.13;;;;;;;;;;5056022;28;20033;-70
2023/03/15 02:49:09;;;;;;;7.22;3.00;;;;;;;;;;5064475;28;20474;-70
2023/03/15 02:51:35;;;;;;;7.30;2.97;;;;;;;;;;5061675;28;20079;-70
2023/03/15 02:54:00;;;;;;;5.07;2.88;;;;;;;;;;5063342;28;20099;-70
2023/03/15 02:56:25;;;;;;;5.07;2.70;;;;;;;;;;5060005;28;20016;-70
2023/03/15 02:58:50;;;;;;;6.30;2.10;;;;;;;;;;5063024;28;20286;-70
2023/03/15 03:01:16;;;;;;;6.75;3.15;;;;;;;;;;5058787;28;20016;-69
2023/03/15 03:03:43;;;;;;;5.63;2.38;;;;;;;;;;5066442;28;20055;-70
2023/03/15 03:06:09;;;;;;;4.25;1.98;;;;;;;;;;5060715;28;20058;-69
2023/03/15 03:08:34;;;;;;;8.77;3.30;;;;;;;;;;5059367;28;20112;-69
2023/03/15 03:11:00;;;;;;;5.45;2.60;;;;;;;;;;5062569;28;20084;-70
2023/03/15 03:13:25;;;;;;;5.77;2.73;;;;;;;;;;5056290;28;20060;-70
2023/03/15 03:15:57;;;;;;;8.93;2.90;;;;;;;;;;5063377;28;20290;-70
2023/03/15 03:18:26;;;;;;;4.97;1.88;;;;;;;;;;5060580;28;20327;-70
2023/03/15 03:20:54;;;;;;;4.28;2.05;;;;;;;;;;5060440;28;20077;-71
2023/03/15 03:23:19;;;;;;;10.70;2.97;;;;;;;;;;5054335;28;20670;-70
2023/03/15 03:25:45;;;;;;;10.40;3.20;;;;;;;;;;5065665;28;20111;-71
2023/03/15 03:28:10;;;;;;;7.17;2.90;;;;;;;;;;5059659;28;20032;-70
2023/03/15 03:30:35;;;;;;;4.57;2.53;;;;;;;;;;5061458;28;20751;-70
2023/03/15 03:33:00;;;;;;;5.57;2.05;;;;;;;;;;5056229;28;20554;-70
2023/03/15 03:35:25;;;;;;;10.87;2.60;;;;;;;;;;5065473;28;20052;-70
2023/03/15 03:37:52;;;;;;;5.82;2.25;;;;;;;;;;5061015;28;20290;-70
2023/03/15 03:40:17;;;;;;;4.80;2.63;;;;;;;;;;5063470;28;20023;-70
2023/03/15 03:42:42;;;;;;;6.72;2.17;;;;;;;;;;5064371;28;20013;-70
2023/03/15 03:45:08;;;;;;;4.00;2.37;;;;;;;;;;5054240;28;20430;-70
2023/03/15 03:47:33;;;;;;;7.00;2.72;;;;;;;;;;5058400;28;20330;-70
2023/03/15 03:49:58;;;;;;;6.03;2.97;;;;;;;;;;5057083;28;20021;-70
2023/03/15 03:52:23;;;;;;;6.67;2.70;;;;;;;;;;5064370;28;20277;-70
2023/03/15 03:54:48;;;;;;;4.75;2.78;;;;;;;;;;5062930;28;20287;-71
2023/03/15 03:57:14;;;;;;;7.15;4.03;;;;;;;;;;5062319;28;20070;-71
2023/03/15 03:59:39;;;;;;;7.07;4.13;;;;;;;;;;5058252;28;20112;-71
2023/03/15 04:02:04;;;;;;;8.40;3.50;;;;;;;;;;5056000;28;20482;-71
2023/03/15 04:04:29;;;;;;;7.55;3.63;;;;;;;;;;5066936;28;20346;-70
2023/03/15 04:06:54;;;;;;;8.77;3.70;;;;;;;;;;5060416;28;20029;-70
2023/03/15 04:09:20;;;;;;;4.97;2.60;;;;;;;;;;5068508;28;20105;-70
2023/03/15 04:11:46;;;;;;;11.13;5.13;;;;;;;;;;5059096;28;20299;-70
2023/03/15 04:14:12;;;;;;;9.25;4.75;;;;;;;;;;5061100;28;20066;-70
2023/03/15 04:16:38;;;;;;;7.75;4.63;;;;;;;;;;5059193;28;20024;-70
2023/03/15 04:19:03;;;;;;;9.25;5.40;;;;;;;;;;5060589;28;20017;-70
2023/03/15 04:21:30;;;;;;;14.70;5.07;;;;;;;;;;5060631;28;20371;-70
2023/03/15 04:23:59;;;;;;;10.70;4.88;;;;;;;;;;5058946;28;20107;-70
2023/03/15 04:26:25;;;;;;;12.30;5.88;;;;;;;;;;5063377;28;20075;-70
2023/03/15 04:28:52;;;;;;;9.18;5.53;;;;;;;;;;5060704;28;20452;-70
2023/03/15 04:31:17;;;;;;;10.35;5.88;;;;;;;;;;5056567;28;20025;-69
2023/03/15 04:33:42;;;;;;;10.75;5.28;;;;;;;;;;5063337;28;20078;-69
2023/03/15 04:36:07;;;;;;;11.87;6.23;;;;;;;;;;5064132;28;20099;-69
2023/03/15 04:38:34;;;;;;;13.32;7.07;;;;;;;;;;5061765;28;20623;-69
2023/03/15 04:40:59;;;;;;;14.40;8.57;;;;;;;;;;5067102;28;20138;-70
2023/03/15 04:43:24;;;;;;;9.57;5.40;;;;;;;;;;5060218;28;20472;-70
2023/03/15 04:45:50;;;;;;;4.30;2.87;;;;;;;;;;5065617;28;20017;-70
2023/03/15 04:48:15;;;;;;;13.43;6.53;;;;;;;;;;5057233;28;20779;-70
2023/03/15 04:50:41;;;;;;;11.50;5.13;;;;;;;;;;5062681;28;20029;-70
2023/03/15 04:53:06;;;;;;;11.45;5.65;;;;;;;;;;5058323;28;20390;-70
2023/03/15 04:55:31;;;;;;;11.32;5.65;;;;;;;;;;5064787;28;20394;-70
2023/03/15 04:57:57;;;;;;;11.38;6.18;;;;;;;;;;5058342;28;20067;-70
2023/03/15 05:00:22;;;;;;;8.80;5.03;;;;;;;;;;5064228;28;20103;-69
2023/03/15 05:02:53;;;;;;;10.43;5.93;;;;;;;;;;5062642;28;20020;-69
2023/03/15 05:05:19;;;;;;;14.30;5.55;;;;;;;;;;5060332;28;20029;-70
2023/03/15 05:07:44;;;;;;;13.10;4.82;;;;;;;;;;5065491;28;20032;-69
2023/03/15 05:10:10;;;;;;;11.23;5.70;;;;;;;;;;5065090;28;20028;-70
2023/03/15 05:12:35;;;;;;;12.98;5.70;;;;;;;;;;5060908;28;20147;-70
2023/03/15 05:15:00;;;;;;;11.33;5.70;;;;;;;;;;5065801;28;20028;-70
2023/03/15 05:17:26;;;;;;;9.50;5.35;;;;;;;;;;5066761;28;20628;-70
2023/03/15 05:19:51;;;;;;;13.82;5.68;;;;;;;;;;5065925;28;20074;-69
2023/03/15 05:22:16;;;;;;;12.13;5.30;;;;;;;;;;5066509;28;20032;-69
2023/03/15 05:24:42;;;;;;;11.80;5.47;;;;;;;;;;5063116;28;20293;-70
2023/03/15 05:27:08;;;;;;;11.85;6.97;;;;;;;;;;5058893;28;20034;-70
2023/03/15 05:29:33;;;;;;;14.07;5.78;;;;;;;;;;5066112;28;20033;-70
2023/03/15 05:31:58;;;;;;;14.77;5.95;;;;;;;;;;5066859;28;20032;-70
2023/03/15 05:34:23;;;;;;;11.73;6.55;;;;;;;;;;5062502;28;20048;-70
2023/03/15 05:36:50;;;;;;;12.68;6.28;;;;;;;;;;5061313;28;20056;-70
2023/03/15 05:39:15;;;;;;;10.60;5.88;;;;;;;;;;5065567;28;20046;-69
2023/03/15 05:41:40;;;;;;;11.50;6.55;;;;;;;;;;5068657;28;20021;-69
2023/03/15 05:44:06;;;;;;;12.30;7.07;;;;;;;;;;5065741;28;20050;-70
2023/03/15 05:46:31;;;;;;;15.03;7.57;;;;;;;;;;5065734;28;20425;-70
2023/03/15 05:48:57;;;;;;;16.30;7.00;;;;;;;;;;5063209;28;20838;-70
2023/03/15 05:51:22;;;;;;;16.20;6.80;;;;;;;;;;5062690;28;20321;-70
2023/03/15 05:53:48;;;;;;;21.63;9.88;;;;;;;;;;5062223;28;20422;-69
2023/03/15 05:56:13;;;;;;;14.45;7.82;;;;;;;;;;5065389;28;20167;-70
2023/03/15 05:58:38;;;;;;;19.67;9.10;;;;;;;;;;5064246;28;20023;-71
2023/03/15 06:01:04;;;;;;;18.08;8.93;;;;;;;;;;5057308;28;20267;-70
2023/03/15 06:03:30;;;;;;;18.63;9.35;;;;;;;;;;5054007;28;20048;-71
2023/03/15 06:05:55;;;;;;;18.13;9.73;;;;;;;;;;5059002;28;20475;-71
2023/03/15 06:08:20;;;;;;;25.15;12.95;;;;;;;;;;5064392;28;20020;-70
2023/03/15 06:10:46;;;;;;;20.73;10.40;;;;;;;;;;5058166;28;20027;-70
2023/03/15 06:13:11;;;;;;;21.38;11.23;;;;;;;;;;5059036;28;20482;-70
2023/03/15 06:15:36;;;;;;;22.38;10.63;;;;;;;;;;5057548;28;20035;-70
2023/03/15 06:18:01;;;;;;;22.95;11.18;;;;;;;;;;5066557;28;20023;-71
2023/03/15 06:20:26;;;;;;;22.47;13.00;;;;;;;;;;5054801;28;20097;-70
2023/03/15 06:22:51;;;;;;;20.77;11.23;;;;;;;;;;5063995;28;20290;-70
2023/03/15 06:25:17;;;;;;;26.55;13.85;;;;;;;;;;5060644;28;20412;-70
2023/03/15 06:27:42;;;;;;;23.95;12.10;;;;;;;;;;5062206;28;20035;-70
2023/03/15 06:30:07;;;;;;;21.20;11.10;;;;;;;;;;5056856;28;20408;-70
2023/03/15 06:32:32;;;;;;;22.70;11.85;;;;;;;;;;5060636;28;20295;-70
2023/03/15 06:34:58;;;;;;;30.30;13.35;;;;;;;;;;5063512;28;20024;-70
2023/03/15 06:37:23;;;;;;;23.58;12.07;;;;;;;;;;5058410;28;20029;-70
2023/03/15 06:39:49;;;;;;;22.20;12.00;;;;;;;;;;5061014;28;20034;-70
2023/03/15 06:42:15;;;;;;;24.73;11.50;;;;;;;;;;5064019;28;20374;-70
2023/03/15 06:44:40;;;;;;;25.08;12.27;;;;;;;;;;5052110;28;20029;-71
2023/03/15 06:47:06;;;;;;;24.05;12.27;;;;;;;;;;5056039;28;20358;-70
2023/03/15 06:49:32;;;;;;;29.08;13.50;;;;;;;;;;5062548;28;20063;-71
2023/03/15 06:51:57;;;;;;;27.10;13.00;;;;;;;;;;5056788;28;20127;-70
2023/03/15 06:54:22;;;;;;;23.50;11.73;;;;;;;;;;5060532;28;20020;-70
2023/03/15 06:56:47;;;;;;;37.30;15.60;;;;;;;;;;5060222;28;20023;-70
2023/03/15 06:59:13;;;;;;;25.67;13.07;;;;;;;;;;5057951;28;20027;-70
2023/03/15 07:01:38;;;;;;;38.17;13.88;;;;;;;;;;5050116;28;20275;-70
2023/03/15 07:04:03;;;;;;;21.42;11.38;;;;;;;;;;5056814;28;20095;-70
2023/03/15 07:06:28;;;;;;;24.48;13.48;;;;;;;;;;5059324;28;20157;-69
2023/03/15 07:08:54;;;;;;;28.83;12.90;;;;;;;;;;5061194;28;20099;-70
2023/03/15 07:11:19;;;;;;;26.30;12.05;;;;;;;;;;5061308;28;20106;-71
2023/03/15 07:13:45;;;;;;;25.95;14.02;;;;;;;;;;5064318;28;20032;-70
2023/03/15 07:16:10;;;;;;;25.55;11.55;;;;;;;;;;5053509;28;20023;-70
2023/03/15 07:18:35;;;;;;;28.85;13.05;;;;;;;;;;5059646;28;20020;-70
2023/03/15 07:21:01;;;;;;;24.97;11.17;;;;;;;;;;5051743;28;20029;-71
2023/03/15 07:23:27;;;;;;;31.00;11.52;;;;;;;;;;5060244;28;20328;-70
2023/03/15 07:25:53;;;;;;;20.83;11.38;;;;;;;;;;5056796;28;20024;-69
2023/03/15 07:28:18;;;;;;;27.90;13.73;;;;;;;;;;5055352;28;20031;-69
2023/03/15 07:30:50;;;;;;;27.52;14.38;;;;;;;;;;5053506;28;20048;-70
2023/03/15 07:33:15;;;;;;;27.48;11.82;;;;;;;;;;5057889;28;20107;-70
2023/03/15 07:35:41;;;;;;;25.13;11.73;;;;;;;;;;5061484;28;20115;-70
2023/03/15 07:38:06;;;;;;;25.33;11.63;;;;;;;;;;5059161;28;20017;-70
2023/03/15 07:40:31;;;;;;;21.00;11.83;;;;;;;;;;5052000;28;20329;-70
2023/03/15 07:42:56;;;;;;;25.77;12.33;;;;;;;;;;5056340;28;20270;-70
2023/03/15 07:45:21;;;;;;;24.97;11.73;;;;;;;;;;5058167;28;20275;-70
2023/03/15 07:47:46;;;;;;;29.90;15.33;;;;;;;;;;5055159;28;20399;-70
2023/03/15 07:50:12;;;;;;;32.15;14.05;;;;;;;;;;5054993;28;20829;-70
2023/03/15 07:52:37;;;;;;;33.75;14.57;;;;;;;;;;5061431;28;20393;-69
2023/03/15 07:55:03;;;;;;;35.10;15.77;;;;;;;;;;5051396;28;20051;-70
2023/03/15 07:57:28;;;;;;;31.67;14.85;;;;;;;;;;5063357;28;20298;-70
2023/03/15 07:59:54;;;;;;;34.78;14.20;;;;;;;;;;5060861;28;20099;-71
2023/03/15 08:02:19;;;;;;;29.75;13.98;;;;;;;;;;5055101;28;20473;-70
2023/03/15 08:04:44;;;;;;;31.35;15.48;;;;;;;;;;5059532;28;20040;-70
2023/03/15 08:07:10;;;;;;;31.40;14.75;;;;;;;;;;5063513;28;20020;-70
2023/03/15 08:09:35;;;;;;;32.90;14.13;;;;;;;;;;5059141;28;20048;-70
2023/03/15 08:12:00;;;;;;;31.77;13.63;;;;;;;;;;5056092;28;20028;-70
2023/03/15 08:14:26;;;;;;;29.55;14.60;;;;;;;;;;5057074;28;20025;-70
2023/03/15 08:16:51;;;;;;;41.38;17.40;;;;;;;;;;5050406;28;20470;-70
2023/03/15 08:19:16;;;;;;;38.05;17.17;;;;;;;;;;5056525;28;20049;-69
2023/03/15 08:21:44;;;;;;;31.27;12.75;;;;;;;;;;5061985;28;20024;-69
2023/03/15 08:24:09;;;;;;;32.92;18.90;;;;;;;;;;5061771;28;20381;-70
2023/03/15 08:26:35;;;;;;;30.83;14.88;;;;;;;;;;5060718;28;20025;-69
2023/03/15 08:29:00;;;;;;;32.38;15.40;;;;;;;;;;5059990;28;20024;-70
2023/03/15 08:31:25;;;;;;;30.08;14.05;;;;;;;;;;5060954;28;20056;-69
2023/03/15 08:33:50;;;;;;;28.67;14.50;;;;;;;;;;5062094;28;20025;-69
2023/03/15 08:36:15;;;;;;;37.00;15.65;;;;;;;;;;5058706;28;20499;-69
2023/03/15 08:38:41;;;;;;;29.13;14.75;;;;;;;;;;5066698;28;20017;-70
2023/03/15 08:41:06;;;;;;;28.53;14.97;;;;;;;;;;5060479;28;20009;-69
2023/03/15 08:43:31;;;;;;;29.77;13.97;;;;;;;;;;5060158;28;20806;-70
2023/03/15 08:45:57;;;;;;;29.67;14.45;;;;;;;;;;5055865;28;20278;-72
2023/03/15 08:48:22;;;;;;;29.38;13.18;;;;;;;;;;5064310;28;20540;-69
2023/03/15 08:50:48;;;;;;;31.70;14.23;;;;;;;;;;5061953;28;20097;-70
2023/03/15 08:53:13;;;;;;;22.83;11.93;;;;;;;;;;5057515;28;20374;-71
2023/03/15 08:55:38;;;;;;;23.80;13.50;;;;;;;;;;5061373;28;20017;-69
2023/03/15 08:58:03;;;;;;;34.58;11.85;;;;;;;;;;5059524;28;20074;-70
2023/03/15 09:00:29;;;;;;;21.90;11.32;;;;;;;;;;5057705;28;20020;-69
2023/03/15 09:02:54;;;;;;;23.00;10.52;;;;;;;;;;5054518;28;20020;-69
2023/03/15 09:05:20;;;;;;;22.08;10.77;;;;;;;;;;5066007;28;20096;-69
2023/03/15 09:07:46;;;;;;;24.38;10.45;;;;;;;;;;5059338;28;20070;-69
2023/03/15 09:10:15;;;;;;;30.40;11.80;;;;;;;;;;5059825;28;20423;-69
2023/03/15 09:12:44;;;;;;;28.52;12.57;;;;;;;;;;5054299;28;20118;-69
2023/03/15 09:15:10;;;;;;;33.45;15.43;;;;;;;;;;5058926;28;20052;-71
2023/03/15 09:17:36;;;;;;;25.98;11.25;;;;;;;;;;5065550;28;20027;-69
2023/03/15 09:20:06;;;;;;;24.00;10.20;;;;;;;;;;5065658;28;20016;-69
2023/03/15 09:22:32;;;;;;;18.27;9.05;;;;;;;;;;5057694;28;20177;-69
2023/03/15 09:24:57;;;;;;;22.48;10.40;;;;;;;;;;5067172;28;20098;-71
2023/03/15 09:27:22;;;;;;;15.47;8.27;;;;;;;;;;5061067;28;20531;-70
2023/03/15 09:29:47;;;;;;;24.60;8.95;;;;;;;;;;5062131;28;20318;-69
2023/03/15 09:32:12;;;;;;;14.65;6.93;;;;;;;;;;5065499;28;20355;-69
2023/03/15 09:34:38;;;;;;;18.53;8.30;;;;;;;;;;5060404;28;20032;-71
2023/03/15 09:37:03;;;;;;;16.95;8.13;;;;;;;;;;5061606;28;20310;-69
2023/03/15 09:39:32;;;;;;;14.77;7.28;;;;;;;;;;5060915;28;20021;-69
2023/03/15 09:41:59;;;;;;;16.42;7.43;;;;;;;;;;5059083;28;20039;-69
2023/03/15 09:44:34;;;;;;;17.73;7.28;;;;;;;;;;5056603;28;20386;-69
2023/03/15 09:47:00;;;;;;;10.57;6.25;;;;;;;;;;5054387;28;20147;-69
2023/03/15 09:49:31;;;;;;;16.75;6.68;;;;;;;;;;5060965;28;20474;-69
2023/03/15 09:52:00;;;;;;;10.15;6.05;;;;;;;;;;5058907;28;20035;-69
2023/03/15 09:54:40;;;;;;;19.15;8.88;;;;;;;;;;5058895;28;20031;-69
2023/03/15 09:57:13;;;;;;;16.08;6.70;;;;;;;;;;5059590;28;20024;-69
2023/03/15 09:59:40;;;;;;;14.30;6.90;;;;;;;;;;5054782;28;20090;-71
2023/03/15 10:02:18;;;;;;;15.40;5.95;;;;;;;;;;5049122;28;20025;-69
2023/03/15 10:04:44;;;;;;;16.92;5.68;;;;;;;;;;5062053;28;20029;-69
2023/03/15 10:07:11;;;;;;;12.73;5.07;;;;;;;;;;5061126;28;20025;-70
2023/03/15 10:09:36;;;;;;;15.80;4.93;;;;;;;;;;5068671;28;20032;-69
2023/03/15 10:12:03;;;;;;;12.85;5.32;;;;;;;;;;5058418;28;20035;-71
2023/03/15 10:14:40;;;;;;;10.00;5.32;;;;;;;;;;5057032;28;20028;-69
2023/03/15 10:17:10;;;;;;;11.77;4.95;;;;;;;;;;5058451;28;20013;-69
2023/03/15 10:19:47;;;;;;;11.68;5.10;;;;;;;;;;5062976;28;20035;-69
2023/03/15 10:22:12;;;;;;;12.82;4.95;;;;;;;;;;5050840;28;20324;-69
2023/03/15 10:24:42;;;;;;;16.17;5.18;;;;;;;;;;5062972;28;20033;-69
2023/03/15 10:27:14;;;;;;;10.35;4.60;;;;;;;;;;5064922;28;20378;-69
2023/03/15 10:29:39;;;;;;;15.88;5.85;;;;;;;;;;5057763;28;20017;-69
2023/03/15 10:32:05;;;;;;;12.43;5.00;;;;;;;;;;5062211;28;20044;-69
2023/03/15 10:34:31;;;;;;;9.75;4.70;;;;;;;;;;5059614;28;20287;-69
2023/03/15 10:36:56;;;;;;;24.70;5.90;;;;;;;;;;5065495;28;20064;-69
2023/03/15 10:39:23;;;;;;;10.10;5.22;;;;;;;;;;5064164;28;20013;-69
2023/03/15 10:41:49;;;;;;;15.75;5.72;;;;;;;;;;5068871;28;20070;-69
2023/03/15 10:44:14;;;;;;;18.50;4.63;;;;;;;;;;5059111;28;20191;-69
2023/03/15 10:46:39;;;;;;;11.00;4.20;;;;;;;;;;5063617;28;20028;-69
2023/03/15 10:49:10;;;;;;;17.58;4.55;;;;;;;;;;5064464;28;20752;-69
2023/03/15 10:51:40;;;;;;;12.20;4.25;;;;;;;;;;5061416;28;20042;-69
2023/03/15 10:54:16;;;;;;;11.20;3.60;;;;;;;;;;5061759;28;20021;-69
2023/03/15 10:56:49;;;;;;;4.80;2.03;;;;;;;;;;5051034;28;20032;-69
2023/03/15 10:59:18;;;;;;;12.80;3.80;;;;;;;;;;5053083;28;20032;-69
2023/03/15 11:01:46;;;;;;;15.63;4.53;;;;;;;;;;5061589;28;20095;-68
2023/03/15 11:04:17;;;;;;;11.90;3.60;;;;;;;;;;5053218;28;20100;-69
2023/03/15 11:06:42;;;;;;;;;;;;;;;;;;5057425;28;20617;-69
2023/03/15 11:09:09;;;;;;;6.75;2.42;;;;;;;;;;5049950;28;20359;-68
2023/03/15 11:11:53;;;;;;;6.15;2.50;;;;;;;;;;5054535;28;20020;-70
2023/03/15 11:14:18;;;;;;;8.23;3.30;;;;;;;;;;5062976;28;20025;-70
2023/03/15 11:16:46;;;;;;;15.77;3.25;;;;;;;;;;5057031;28;20062;-69
2023/03/15 11:19:13;;;;;;;9.35;3.38;;;;;;;;;;5053824;28;20036;-70
2023/03/15 11:21:39;;;;;;;15.43;2.65;;;;;;;;;;5058604;28;20013;-69
2023/03/15 11:24:05;;;;;;;10.57;3.25;;;;;;;;;;5058238;28;20046;-70
2023/03/15 11:26:35;;;;;;;11.95;3.22;;;;;;;;;;5059569;28;20473;-69
2023/03/15 11:29:05;;;;;;;9.35;2.50;;;;;;;;;;5056846;28;20476;-69
2023/03/15 11:31:30;;;;;;;13.70;2.97;;;;;;;;;;5061233;28;20021;-69
2023/03/15 11:34:02;;;;;;;6.60;2.63;;;;;;;;;;5051133;28;20098;-70
2023/03/15 11:36:29;;;;;;;12.70;2.92;;;;;;;;;;5057167;28;20012;-70
2023/03/15 11:38:54;;;;;;;11.75;2.47;;;;;;;;;;5053589;28;20063;-70
2023/03/15 11:41:28;;;;;;;11.55;2.70;;;;;;;;;;5055669;28;20083;-70
2023/03/15 11:44:00;;;;;;;6.90;2.33;;;;;;;;;;5055663;28;20020;-70
2023/03/15 11:46:28;;;;;;;7.80;1.80;;;;;;;;;;5053414;28;20040;-70
2023/03/15 11:49:15;;;;;;;8.15;2.30;;;;;;;;;;5052720;28;20032;-70
2023/03/15 11:51:40;;;;;;;7.18;1.85;;;;;;;;;;5059003;28;20059;-68
2023/03/15 11:54:16;;;;;;;6.00;1.92;;;;;;;;;;5055502;28;20424;-70
2023/03/15 11:56:44;;;;;;;13.43;3.25;;;;;;;;;;5053485;28;20044;-68
2023/03/15 11:59:11;;;;;;;7.72;2.70;;;;;;;;;;5058536;28;20097;-70
2023/03/15 12:01:40;;;;;;;4.90;2.33;;;;;;;;;;5052089;28;20017;-70
2023/03/15 12:04:18;;;;;;;13.82;3.30;;;;;;;;;;5060619;28;20032;-70
2023/03/15 12:06:43;;;;;;;7.68;2.20;;;;;;;;;;5058345;28;20039;-71
2023/03/15 12:09:27;;;;;;;12.50;2.50;;;;;;;;;;5057603;28;20013;-70
2023/03/15 12:11:55;;;;;;;9.02;2.58;;;;;;;;;;5057969;28;20032;-68
2023/03/15 12:14:31;;;;;;;12.55;2.72;;;;;;;;;;5060033;28;20082;-68
2023/03/15 12:17:15;;;;;;;12.43;2.30;;;;;;;;;;5057182;28;20017;-70
2023/03/15 12:19:40;;;;;;;9.55;2.67;;;;;;;;;;5062141;28;20070;-71
2023/03/15 12:22:13;;;;;;;8.40;1.85;;;;;;;;;;5058022;28;20024;-69
2023/03/15 12:24:39;;;;;;;14.32;2.05;;;;;;;;;;5053268;28;20042;-69
2023/03/15 12:27:05;;;;;;;8.85;1.98;;;;;;;;;;5058529;28;20087;-69
2023/03/15 12:29:33;;;;;;;8.27;1.83;;;;;;;;;;5056561;28;20021;-69
2023/03/15 12:31:58;;;;;;;9.93;2.30;;;;;;;;;;5054792;28;20037;-69
2023/03/15 12:34:26;;;;;;;14.60;2.28;;;;;;;;;;5054758;28;20074;-69
2023/03/15 12:36:54;;;;;;;10.80;2.78;;;;;;;;;;5063486;28;20044;-69
2023/03/15 12:39:21;;;;;;;9.18;2.20;;;;;;;;;;5054658;28;20023;-69
2023/03/15 12:41:48;;;;;;;7.55;2.60;;;;;;;;;;5055288;28;20017;-69
2023/03/15 12:44:17;;;;;;;9.93;2.83;;;;;;;;;;5058155;28;20033;-69
2023/03/15 12:46:52;;;;;;;13.82;2.20;;;;;;;;;;5058040;28;20029;-69
2023/03/15 12:49:17;;;;;;;7.97;2.70;;;;;;;;;;5057240;28;20105;-69
2023/03/15 12:51:52;;;;;;;11.02;2.33;;;;;;;;;;5055391;28;20032;-69
2023/03/15 12:54:18;;;;;;;8.32;2.00;;;;;;;;;;5053756;28;20032;-69
2023/03/15 12:56:49;;;;;;;8.23;1.88;;;;;;;;;;5060858;28;20024;-69
2023/03/15 12:59:32;;;;;;;12.40;2.88;;;;;;;;;;5052670;28;20075;-69
2023/03/15 13:01:59;;;;;;;9.98;2.53;;;;;;;;;;5057953;28;20474;-69
2023/03/15 13:04:25;;;;;;;13.13;2.63;;;;;;;;;;5059235;28;20111;-69
2023/03/15 13:07:09;;;;;;;11.98;2.25;;;;;;;;;;5056205;28;20127;-69
2023/03/15 13:09:43;;;;;;;4.45;1.88;;;;;;;;;;5062709;28;20386;-69
2023/03/15 13:12:15;;;;;;;11.80;1.90;;;;;;;;;;5057208;28;20027;-68
2023/03/15 13:14:47;;;;;;;12.57;1.92;;;;;;;;;;5061158;28;20232;-68
2023/03/15 13:17:23;;;;;;;10.50;2.25;;;;;;;;;;5060286;28;20388;-69
2023/03/15 13:19:53;;;;;;;11.90;2.40;;;;;;;;;;5059969;28;20024;-69
2023/03/15 13:22:18;;;;;;;8.77;2.35;;;;;;;;;;5068748;28;20103;-69
2023/03/15 13:24:51;;;;;;;6.93;2.20;;;;;;;;;;5054822;28;20116;-68
2023/03/15 13:27:35;;;;;;;11.15;1.73;;;;;;;;;;5055574;28;20342;-68
2023/03/15 13:30:19;;;;;;;11.57;2.53;;;;;;;;;;5051765;28;20017;-70
2023/03/15 13:32:44;;;;;;;6.00;1.42;;;;;;;;;;5059690;28;20032;-70
2023/03/15 13:35:11;;;;;;;4.35;1.27;;;;;;;;;;5056246;28;20175;-69
2023/03/15 13:37:40;;;;;;;8.57;1.83;;;;;;;;;;5059935;28;20119;-70
2023/03/15 13:40:10;;;;;;;4.75;1.10;;;;;;;;;;5058724;28;20374;-70
2023/03/15 13:42:37;;;;;;;4.88;1.70;;;;;;;;;;5063855;28;20029;-70
2023/03/15 13:45:05;;;;;;;7.07;1.60;;;;;;;;;;5053647;28;20529;-70
2023/03/15 13:47:32;;;;;;;6.05;1.83;;;;;;;;;;5063171;28;20091;-70
2023/03/15 13:49:57;;;;;;;6.95;1.75;;;;;;;;;;5060195;28;20028;-70
2023/03/15 13:52:22;;;;;;;5.40;1.63;;;;;;;;;;5056320;28;20047;-71
2023/03/15 13:54:50;;;;;;;6.85;1.75;;;;;;;;;;5058353;28;20768;-70
2023/03/15 13:57:18;;;;;;;11.57;2.05;;;;;;;;;;5053275;28;20056;-71
2023/03/15 13:59:43;;;;;;;11.85;2.65;;;;;;;;;;5054356;28;20382;-70
2023/03/15 14:02:16;;;;;;;4.10;1.48;;;;;;;;;;5054945;28;20008;-70
2023/03/15 14:04:41;;;;;;;3.78;1.50;;;;;;;;;;5052906;28;20271;-71
2023/03/15 14:07:12;;;;;;;8.52;1.63;;;;;;;;;;5057844;28;20028;-71
2023/03/15 14:09:38;;;;;;;6.82;1.20;;;;;;;;;;5056962;28;20024;-71
2023/03/15 14:12:05;;;;;;;2.88;0.80;;;;;;;;;;5054041;28;20013;-71
2023/03/15 14:14:31;;;;;;;7.15;1.48;;;;;;;;;;5057672;28;20029;-71
2023/03/15 14:16:57;;;;;;;3.15;1.13;;;;;;;;;;5054029;28;20023;-71
2023/03/15 14:19:24;;;;;;;13.02;2.55;;;;;;;;;;5056327;28;20441;-70
2023/03/15 14:22:15;;;;;;;5.90;2.05;;;;;;;;;;5056063;28;20389;-71
2023/03/15 14:24:42;;;;;;;6.18;1.83;;;;;;;;;;5051743;28;20072;-70
2023/03/15 14:27:11;;;;;;;7.38;1.90;;;;;;;;;;5055029;28;20021;-71
2023/03/15 14:29:38;;;;;;;12.20;1.52;;;;;;;;;;5052177;28;20457;-71
2023/03/15 14:32:05;;;;;;;6.45;1.48;;;;;;;;;;5059220;28;20025;-71